createdAt,value
2022-07-27T00:01:08.215Z,101220.97
2022-07-27T00:03:36.044Z,101220.44
2022-07-27T00:06:03.904Z,101211.69
2022-07-27T00:08:32.819Z,101217.09
2022-07-27T00:11:00.688Z,101218.09
2022-07-27T00:13:31.882Z,101225.72
2022-07-27T00:15:59.795Z,101226.78
2022-07-27T00:18:28.965Z,101226.19
2022-07-27T00:20:56.731Z,101220.78
2022-07-27T00:23:24.501Z,101222.38
2022-07-27T00:25:52.225Z,101223.59
2022-07-27T00:28:20.034Z,101231.72
2022-07-27T00:30:47.788Z,101226.53
2022-07-27T00:33:17.274Z,101219.56
2022-07-27T00:35:46.723Z,101221.97
2022-07-27T00:38:14.445Z,101225.41
2022-07-27T00:40:42.157Z,101223.56
2022-07-27T00:43:09.943Z,101228.16
2022-07-27T00:45:37.737Z,101223.22
2022-07-27T00:48:06.457Z,101227.16
2022-07-27T00:50:34.264Z,101222.75
2022-07-27T00:53:04.796Z,101214.50
2022-07-27T00:55:33.178Z,101222.78
2022-07-27T00:58:02.574Z,101223.03
2022-07-27T01:00:30.304Z,101217.22
2022-07-27T01:02:58.188Z,101221.91
2022-07-27T01:05:35.876Z,101222.16
2022-07-27T01:08:08.322Z,101225.50
2022-07-27T01:10:36.669Z,101225.16
2022-07-27T01:13:04.675Z,101218.63
2022-07-27T01:15:36.753Z,101224.38
2022-07-27T01:18:06.145Z,101216.91
2022-07-27T01:20:33.997Z,101224.91
2022-07-27T01:23:03.032Z,101223.31
2022-07-27T01:25:30.734Z,101214.97
2022-07-27T01:27:58.468Z,101216.78
2022-07-27T01:30:30.169Z,101215.31
2022-07-27T01:33:02.676Z,101215.56
2022-07-27T01:35:30.916Z,101216.91
2022-07-27T01:37:59.041Z,101213.00
2022-07-27T01:40:28.209Z,101219.78
2022-07-27T01:42:56.178Z,101210.19
2022-07-27T01:45:23.924Z,101215.41
2022-07-27T01:47:51.633Z,101213.78
2022-07-27T01:50:19.380Z,101209.66
2022-07-27T01:52:47.192Z,101210.78
2022-07-27T01:55:15.313Z,101209.38
2022-07-27T01:57:44.361Z,101210.28
2022-07-27T02:00:13.620Z,101212.09
2022-07-27T02:02:41.899Z,101207.78
2022-07-27T02:05:11.855Z,101209.97
2022-07-27T02:07:40.532Z,101209.72
2022-07-27T02:10:10.002Z,101199.38
2022-07-27T02:12:37.372Z,101212.44
2022-07-27T02:15:14.924Z,101209.19
2022-07-27T02:17:44.925Z,101203.72
2022-07-27T02:20:14.704Z,101197.16
2022-07-27T02:22:42.673Z,101196.66
2022-07-27T02:25:11.695Z,101197.38
2022-07-27T02:27:40.102Z,101204.31
2022-07-27T02:30:10.971Z,101207.00
2022-07-27T02:32:38.811Z,101200.44
2022-07-27T02:35:18.605Z,101209.75
2022-07-27T02:37:46.987Z,101212.19
2022-07-27T02:40:16.962Z,101211.06
2022-07-27T02:42:44.856Z,101217.59
2022-07-27T02:45:13.961Z,101214.91
2022-07-27T02:47:41.729Z,101209.97
2022-07-27T02:50:10.618Z,101209.72
2022-07-27T02:52:39.072Z,101201.59
2022-07-27T02:55:07.949Z,101203.50
2022-07-27T02:57:37.747Z,101198.88
2022-07-27T03:00:06.886Z,101204.06
2022-07-27T03:02:36.488Z,101201.88
2022-07-27T03:05:05.585Z,101200.47
2022-07-27T03:07:33.510Z,101199.41
2022-07-27T03:10:03.522Z,101208.91
2022-07-27T03:12:31.259Z,101210.28
2022-07-27T03:14:59.015Z,101204.06
2022-07-27T03:17:26.856Z,101210.28
2022-07-27T03:19:55.983Z,101215.72
2022-07-27T03:22:23.674Z,101216.03
2022-07-27T03:24:51.476Z,101223.06
2022-07-27T03:27:19.165Z,101223.59
2022-07-27T03:29:47.154Z,101225.22
2022-07-27T03:32:14.893Z,101227.41
2022-07-27T03:34:42.648Z,101221.97
2022-07-27T03:37:11.683Z,101225.53
2022-07-27T03:39:39.409Z,101236.38
2022-07-27T03:42:07.528Z,101226.84
2022-07-27T03:44:35.285Z,101234.47
2022-07-27T03:47:04.399Z,101229.84
2022-07-27T03:49:32.251Z,101224.69
2022-07-27T03:52:00.120Z,101230.13
2022-07-27T03:54:29.215Z,101225.78
2022-07-27T03:56:56.927Z,101226.81
2022-07-27T03:59:24.666Z,101223.06
2022-07-27T04:01:52.366Z,101224.97
2022-07-27T04:04:20.109Z,101232.84
2022-07-27T04:06:47.835Z,101235.03
2022-07-27T04:09:17.177Z,101238.53
2022-07-27T04:11:51.045Z,101235.03
2022-07-27T04:14:19.735Z,101238.22
2022-07-27T04:16:47.744Z,101231.19
2022-07-27T04:19:15.987Z,101233.34
2022-07-27T04:21:44.108Z,101235.28
2022-07-27T04:24:11.845Z,101233.38
2022-07-27T04:26:39.589Z,101232.03
2022-07-27T04:29:08.928Z,101221.69
2022-07-27T04:31:36.801Z,101220.88
2022-07-27T04:34:04.538Z,101225.53
2022-07-27T04:36:32.303Z,101229.59
2022-07-27T04:39:00.081Z,101234.19
2022-07-27T04:41:30.417Z,101223.84
2022-07-27T04:43:58.642Z,101235.56
2022-07-27T04:46:29.448Z,101233.94
2022-07-27T04:48:57.488Z,101240.16
2022-07-27T04:51:25.263Z,101226.88
2022-07-27T04:53:58.093Z,101221.69
2022-07-27T04:56:27.017Z,101228.75
2022-07-27T04:58:55.354Z,101234.72
2022-07-27T05:01:25.332Z,101227.13
2022-07-27T05:03:54.620Z,101237.75
2022-07-27T05:06:22.428Z,101235.81
2022-07-27T05:08:50.192Z,101235.56
2022-07-27T05:11:17.921Z,101233.09
2022-07-27T05:13:45.712Z,101230.13
2022-07-27T05:16:13.537Z,101240.16
2022-07-27T05:18:41.340Z,101242.09
2022-07-27T05:21:10.529Z,101251.59
2022-07-27T05:23:38.268Z,101251.31
2022-07-27T05:26:06.208Z,101249.41
2022-07-27T05:28:33.972Z,101254.56
2022-07-27T05:31:04.344Z,101265.97
2022-07-27T05:33:32.075Z,101252.94
2022-07-27T05:35:59.920Z,101252.38
2022-07-27T05:38:31.850Z,101256.63
2022-07-27T05:40:59.613Z,101254.03
2022-07-27T05:43:28.292Z,101259.72
2022-07-27T05:45:56.009Z,101258.38
2022-07-27T05:48:23.813Z,101260.53
2022-07-27T05:50:51.589Z,101267.34
2022-07-27T05:56:09.629Z,101261.34
2022-07-27T05:58:37.863Z,101262.44
2022-07-27T06:01:05.662Z,101262.72
2022-07-27T06:03:33.546Z,101259.16
2022-07-27T06:06:18.996Z,101265.72
2022-07-27T06:08:46.716Z,101256.75
2022-07-27T06:11:15.827Z,101265.19
2022-07-27T06:13:43.513Z,101269.25
2022-07-27T06:16:11.409Z,101275.22
2022-07-27T06:18:39.641Z,101276.31
2022-07-27T06:21:07.325Z,101279.84
2022-07-27T06:23:35.150Z,101274.41
2022-07-27T06:26:02.853Z,101278.50
2022-07-27T06:28:32.249Z,101275.22
2022-07-27T06:31:01.207Z,101284.19
2022-07-27T06:33:30.701Z,101277.13
2022-07-27T06:36:00.221Z,101279.56
2022-07-27T06:38:30.295Z,101278.50
2022-07-27T06:40:58.216Z,101267.63
2022-07-27T06:43:27.437Z,101279.03
2022-07-27T06:45:58.070Z,101284.72
2022-07-27T06:48:25.921Z,101282.56
2022-07-27T06:50:53.900Z,101286.41
2022-07-27T06:53:22.502Z,101293.44
2022-07-27T06:55:50.213Z,101295.06
2022-07-27T06:58:18.333Z,101301.59
2022-07-27T07:00:47.326Z,101295.34
2022-07-27T07:03:16.675Z,101291.28
2022-07-27T07:05:46.608Z,101288.81
2022-07-27T07:08:15.434Z,101293.44
2022-07-27T07:10:46.429Z,101296.16
2022-07-27T07:13:14.353Z,101295.09
2022-07-27T07:15:42.775Z,101283.94
2022-07-27T07:18:11.061Z,101298.91
2022-07-27T07:20:40.324Z,101305.69
2022-07-27T07:23:08.434Z,101315.44
2022-07-27T07:25:36.490Z,101311.63
2022-07-27T07:28:05.124Z,101324.16
2022-07-27T07:30:33.015Z,101326.84
2022-07-27T07:33:00.737Z,101315.97
2022-07-27T07:35:29.655Z,101308.38
2022-07-27T07:37:58.737Z,101308.41
2022-07-27T07:40:44.241Z,101308.38
2022-07-27T07:43:14.009Z,101319.50
2022-07-27T07:45:49.946Z,101310.84
2022-07-27T07:48:20.450Z,101309.75
2022-07-27T07:50:52.260Z,101317.06
2022-07-27T07:53:23.637Z,101321.94
2022-07-27T07:55:52.331Z,101319.81
2022-07-27T07:58:20.169Z,101329.59
2022-07-27T08:00:47.995Z,101325.81
2022-07-27T08:03:16.079Z,101336.88
2022-07-27T08:05:44.254Z,101335.00
2022-07-27T08:08:12.102Z,101343.75
2022-07-27T08:10:41.237Z,101353.50
2022-07-27T08:13:09.305Z,101349.16
2022-07-27T08:15:37.080Z,101355.69
2022-07-27T08:18:05.798Z,101345.13
2022-07-27T08:20:34.484Z,101353.25
2022-07-27T08:23:03.123Z,101343.72
2022-07-27T08:25:31.119Z,101346.19
2022-07-27T08:28:02.686Z,101344.81
2022-07-27T08:30:32.338Z,101344.84
2022-07-27T08:33:03.039Z,101341.00
2022-07-27T08:35:32.189Z,101340.16
2022-07-27T08:38:00.689Z,101340.16
2022-07-27T08:40:39.784Z,101334.47
2022-07-27T08:43:11.642Z,101336.63
2022-07-27T08:45:41.165Z,101344.25
2022-07-27T08:48:13.440Z,101342.03
2022-07-27T08:50:42.809Z,101343.03
2022-07-27T08:53:12.983Z,101344.16
2022-07-27T08:55:42.408Z,101342.25
2022-07-27T08:58:13.688Z,101343.06
2022-07-27T09:00:43.587Z,101346.03
2022-07-27T09:03:18.527Z,101334.31
2022-07-27T09:05:49.455Z,101339.09
2022-07-27T09:08:21.295Z,101350.53
2022-07-27T09:10:49.045Z,101338.47
2022-07-27T09:13:23.844Z,101344.47
2022-07-27T09:18:41.418Z,101335.34
2022-07-27T09:21:11.198Z,101323.94
2022-07-27T09:23:39.775Z,101333.44
2022-07-27T09:26:30.053Z,101331.59
2022-07-27T09:29:03.034Z,101333.34
2022-07-27T09:31:31.366Z,101321.41
2022-07-27T09:34:00.567Z,101329.34
2022-07-27T09:36:29.498Z,101320.28
2022-07-27T09:39:02.444Z,101318.66
2022-07-27T09:41:40.896Z,101318.34
2022-07-27T09:46:57.955Z,101305.34
2022-07-27T09:49:30.598Z,101313.91
2022-07-27T09:52:01.307Z,101320.75
2022-07-27T09:54:42.947Z,101310.22
2022-07-27T09:57:10.901Z,101301.50
2022-07-27T09:59:40.119Z,101304.78
2022-07-27T10:02:08.194Z,101307.91
2022-07-27T10:04:36.089Z,101303.47
2022-07-27T10:07:06.297Z,101317.47
2022-07-27T10:09:37.267Z,101311.44
2022-07-27T10:12:05.415Z,101315.16
2022-07-27T10:14:33.563Z,101312.63
2022-07-27T10:17:03.518Z,101317.13
2022-07-27T10:19:37.381Z,101315.84
2022-07-27T10:22:05.093Z,101316.53
2022-07-27T10:24:36.229Z,101308.75
2022-07-27T10:27:19.540Z,101308.06
2022-07-27T10:29:47.987Z,101327.97
2022-07-27T10:32:24.501Z,101317.13
2022-07-27T10:34:52.256Z,101314.09
2022-07-27T10:37:26.476Z,101322.63
2022-07-27T10:40:15.937Z,101326.41
2022-07-27T10:42:45.461Z,101320.19
2022-07-27T10:45:17.037Z,101327.09
2022-07-27T10:47:47.616Z,101321.69
2022-07-27T10:50:32.687Z,101318.16
2022-07-27T10:53:11.609Z,101320.38
2022-07-27T10:55:47.323Z,101310.25
2022-07-27T10:58:47.492Z,101306.69
2022-07-27T11:01:16.131Z,101300.63
2022-07-27T11:03:52.382Z,101313.81
2022-07-27T11:06:33.196Z,101311.78
2022-07-27T11:10:00.182Z,101315.84
2022-07-27T11:11:53.465Z,101319.56
2022-07-27T11:14:31.215Z,101316.22
2022-07-27T11:19:54.590Z,101312.84
2022-07-27T11:23:13.942Z,101313.22
2022-07-27T11:25:20.389Z,101312.38
2022-07-27T11:27:49.124Z,101318.59
2022-07-27T11:30:24.400Z,101312.50
2022-07-27T11:32:52.248Z,101318.16
2022-07-27T11:35:21.374Z,101306.75
2022-07-27T11:37:59.890Z,101320.03
2022-07-27T11:40:56.375Z,101315.78
2022-07-27T11:43:33.666Z,101323.88
2022-07-27T11:46:13.241Z,101312.06
2022-07-27T11:49:05.597Z,101327.19
2022-07-27T11:51:35.991Z,101322.97
2022-07-27T11:54:05.765Z,101321.06
2022-07-27T11:56:35.108Z,101318.69
2022-07-27T11:59:15.044Z,101318.84
2022-07-27T12:01:48.578Z,101324.47
2022-07-27T12:04:19.256Z,101323.16
2022-07-27T12:06:55.425Z,101326.34
2022-07-27T12:09:23.847Z,101330.19
2022-07-27T12:11:54.668Z,101331.44
2022-07-27T12:14:30.799Z,101336.16
2022-07-27T12:17:26.917Z,101339.69
2022-07-27T12:19:57.913Z,101334.06
2022-07-27T12:22:32.962Z,101336.28
2022-07-27T12:25:04.801Z,101333.66
2022-07-27T12:27:38.302Z,101334.28
2022-07-27T12:30:10.428Z,101330.41
2022-07-27T12:32:41.240Z,101330.16
2022-07-27T12:35:24.711Z,101323.44
2022-07-27T12:38:03.445Z,101334.00
2022-07-27T12:40:32.448Z,101338.78
2022-07-27T12:43:03.117Z,101344.47
2022-07-27T12:45:33.453Z,101337.75
2022-07-27T12:48:09.508Z,101339.34
2022-07-27T12:50:37.346Z,101329.59
2022-07-27T12:53:06.985Z,101328.94
2022-07-27T12:55:35.167Z,101334.41
2022-07-27T12:58:04.747Z,101336.84
2022-07-27T13:00:34.409Z,101336.75
2022-07-27T13:03:03.265Z,101335.28
2022-07-27T13:05:31.515Z,101340.03
2022-07-27T13:07:59.862Z,101330.69
2022-07-27T13:10:29.250Z,101319.75
2022-07-27T13:12:57.453Z,101332.78
2022-07-27T13:15:25.154Z,101339.28
2022-07-27T13:17:52.945Z,101338.38
2022-07-27T13:20:20.689Z,101338.13
2022-07-27T13:22:48.606Z,101338.00
2022-07-27T13:25:17.613Z,101339.44
2022-07-27T13:27:47.834Z,101342.28
2022-07-27T13:30:17.116Z,101343.91
2022-07-27T13:32:46.505Z,101341.25
2022-07-27T13:35:14.659Z,101342.41
2022-07-27T13:37:43.326Z,101350.63
2022-07-27T13:40:11.723Z,101345.91
2022-07-27T13:42:39.614Z,101354.53
2022-07-27T13:45:11.262Z,101341.25
2022-07-27T13:47:40.143Z,101337.69
2022-07-27T13:50:17.018Z,101345.69
2022-07-27T13:52:46.585Z,101333.44
2022-07-27T13:55:15.053Z,101349.06
2022-07-27T13:57:42.870Z,101333.03
2022-07-27T14:00:13.201Z,101340.97
2022-07-27T14:02:41.959Z,101330.38
2022-07-27T14:05:12.942Z,101331.16
2022-07-27T14:07:42.870Z,101343.59
2022-07-27T14:10:30.125Z,101337.97
2022-07-27T14:12:59.166Z,101332.28
2022-07-27T14:15:28.698Z,101337.31
2022-07-27T14:17:56.498Z,101330.91
2022-07-27T14:20:24.305Z,101327.78
2022-07-27T14:22:52.183Z,101338.66
2022-07-27T14:25:20.085Z,101334.66
2022-07-27T14:27:47.914Z,101337.59
2022-07-27T14:30:20.404Z,101324.94
2022-07-27T14:32:50.120Z,101326.06
2022-07-27T14:35:18.090Z,101323.88
2022-07-27T14:37:46.242Z,101324.06
2022-07-27T14:40:15.084Z,101330.16
2022-07-27T14:42:42.942Z,101315.84
2022-07-27T14:45:11.542Z,101330.19
2022-07-27T14:47:39.401Z,101319.53
2022-07-27T14:50:09.531Z,101331.88
2022-07-27T14:52:37.528Z,101329.34
2022-07-27T14:55:06.006Z,101336.44
2022-07-27T14:57:33.981Z,101334.97
2022-07-27T15:00:03.044Z,101327.38
2022-07-27T15:02:30.812Z,101326.00
2022-07-27T15:04:58.587Z,101333.63
2022-07-27T15:07:27.663Z,101332.00
2022-07-27T15:09:55.763Z,101338.38
2022-07-27T15:12:23.553Z,101330.59
2022-07-27T15:14:52.136Z,101331.72
2022-07-27T15:17:19.980Z,101328.03
2022-07-27T15:19:47.925Z,101341.84
2022-07-27T15:22:15.709Z,101337.06
2022-07-27T15:24:44.913Z,101337.91
2022-07-27T15:27:13.761Z,101337.41
2022-07-27T15:29:41.550Z,101343.38
2022-07-27T15:32:10.239Z,101335.97
2022-07-27T15:34:38.203Z,101335.94
2022-07-27T15:37:07.411Z,101334.22
2022-07-27T15:39:37.403Z,101343.03
2022-07-27T15:42:07.738Z,101338.53
2022-07-27T15:44:36.993Z,101335.47
2022-07-27T15:47:05.159Z,101337.28
2022-07-27T15:49:33.025Z,101332.97
2022-07-27T15:52:03.026Z,101327.94
2022-07-27T15:54:33.829Z,101327.44
2022-07-27T15:57:06.028Z,101327.72
2022-07-27T15:59:33.730Z,101321.91
2022-07-27T16:02:03.469Z,101325.47
2022-07-27T16:04:32.745Z,101328.22
2022-07-27T16:07:00.456Z,101331.94
2022-07-27T16:09:28.232Z,101324.66
2022-07-27T16:11:55.943Z,101332.88
2022-07-27T16:14:25.021Z,101335.19
2022-07-27T16:16:52.745Z,101340.06
2022-07-27T16:19:20.524Z,101337.53
2022-07-27T16:21:55.447Z,101333.00
2022-07-27T16:24:24.640Z,101339.31
2022-07-27T16:26:52.558Z,101334.13
2022-07-27T16:29:20.287Z,101332.34
2022-07-27T16:31:49.575Z,101329.84
2022-07-27T16:34:17.372Z,101318.75
2022-07-27T16:36:45.081Z,101319.47
2022-07-27T16:39:13.033Z,101331.94
2022-07-27T16:41:40.981Z,101323.81
2022-07-27T16:44:10.516Z,101320.63
2022-07-27T16:46:38.337Z,101316.28
2022-07-27T16:49:07.471Z,101314.25
2022-07-27T16:51:35.356Z,101321.16
2022-07-27T16:54:05.510Z,101320.94
2022-07-27T16:56:33.481Z,101318.22
2022-07-27T16:59:03.484Z,101323.91
2022-07-27T17:01:32.184Z,101316.94
2022-07-27T17:04:00.007Z,101316.75
2022-07-27T17:06:29.431Z,101321.44
2022-07-27T17:08:57.127Z,101325.16
2022-07-27T17:11:25.105Z,101319.47
2022-07-27T17:13:59.394Z,101325.75
2022-07-27T17:16:27.912Z,101320.00
2022-07-27T17:18:56.042Z,101328.53
2022-07-27T17:21:23.806Z,101332.84
2022-07-27T17:23:52.924Z,101326.59
2022-07-27T17:26:22.804Z,101339.13
2022-07-27T17:28:53.075Z,101333.34
2022-07-27T17:31:21.937Z,101333.63
2022-07-27T17:33:50.502Z,101338.53
2022-07-27T17:36:18.430Z,101331.22
2022-07-27T17:38:47.099Z,101333.25
2022-07-27T17:41:21.917Z,101343.47
2022-07-27T17:43:52.608Z,101339.88
2022-07-27T17:46:20.537Z,101338.44
2022-07-27T17:48:48.453Z,101334.72
2022-07-27T17:51:16.628Z,101336.16
2022-07-27T17:53:44.497Z,101345.75
2022-07-27T17:56:13.122Z,101340.75
2022-07-27T17:58:42.846Z,101348.91
2022-07-27T18:01:10.628Z,101344.56
2022-07-27T18:03:38.545Z,101348.25
2022-07-27T18:06:06.834Z,101352.91
2022-07-27T18:08:34.846Z,101346.69
2022-07-27T18:11:05.293Z,101346.22
2022-07-27T18:13:39.681Z,101361.09
2022-07-27T18:16:11.437Z,101358.47
2022-07-27T18:18:39.699Z,101362.31
2022-07-27T18:21:08.414Z,101363.06
2022-07-27T18:23:36.466Z,101370.88
2022-07-27T18:26:10.800Z,101365.31
2022-07-27T18:28:39.976Z,101373.97
2022-07-27T18:31:12.081Z,101370.59
2022-07-27T18:33:45.566Z,101368.19
2022-07-27T18:36:14.117Z,101366.84
2022-07-27T18:38:44.888Z,101378.41
2022-07-27T18:41:12.692Z,101371.09
2022-07-27T18:43:40.593Z,101376.47
2022-07-27T18:46:09.737Z,101379.72
2022-07-27T18:48:37.578Z,101376.72
2022-07-27T18:51:05.402Z,101376.72
2022-07-27T18:53:33.189Z,101383.63
2022-07-27T18:56:01.002Z,101383.50
2022-07-27T18:58:30.653Z,101385.47
2022-07-27T19:00:59.391Z,101391.69
2022-07-27T19:03:28.713Z,101391.41
2022-07-27T19:05:56.631Z,101395.84
2022-07-27T19:08:24.940Z,101387.94
2022-07-27T19:10:52.970Z,101386.84
2022-07-27T19:13:21.026Z,101396.09
2022-07-27T19:15:48.727Z,101399.16
2022-07-27T19:18:16.451Z,101399.94
2022-07-27T19:20:45.605Z,101410.31
2022-07-27T19:23:13.396Z,101404.88
2022-07-27T19:25:41.288Z,101408.84
2022-07-27T19:28:09.029Z,101414.56
2022-07-27T19:30:38.626Z,101416.94
2022-07-27T19:33:06.801Z,101419.44
2022-07-27T19:35:35.046Z,101422.47
2022-07-27T19:38:04.223Z,101417.75
2022-07-27T19:40:47.184Z,101410.13
2022-07-27T19:43:15.614Z,101425.41
2022-07-27T19:45:43.647Z,101426.16
2022-07-27T19:48:11.699Z,101424.22
2022-07-27T19:50:39.831Z,101424.63
2022-07-27T19:53:09.053Z,101431.78
2022-07-27T19:55:37.032Z,101420.69
2022-07-27T19:58:04.863Z,101425.84
2022-07-27T20:00:34.022Z,101431.28
2022-07-27T20:03:07.557Z,101430.94
2022-07-27T20:05:37.028Z,101444.25
2022-07-27T20:08:05.129Z,101434.78
2022-07-27T20:10:34.180Z,101442.66
2022-07-27T20:13:03.430Z,101449.09
2022-07-27T20:15:32.616Z,101445.22
2022-07-27T20:18:00.353Z,101448.66
2022-07-27T20:20:28.152Z,101455.63
2022-07-27T20:22:56.157Z,101448.56
2022-07-27T20:25:24.483Z,101448.63
2022-07-27T20:27:53.883Z,101453.47
2022-07-27T20:30:21.869Z,101454.03
2022-07-27T20:32:50.475Z,101452.06
2022-07-27T20:35:18.731Z,101460.53
2022-07-27T20:37:47.254Z,101458.97
2022-07-27T20:40:15.446Z,101461.81
2022-07-27T20:42:43.969Z,101467.50
2022-07-27T20:45:14.493Z,101461.22
2022-07-27T20:47:43.412Z,101469.22
2022-07-27T20:50:12.181Z,101467.94
2022-07-27T20:52:40.360Z,101476.09
2022-07-27T20:55:09.481Z,101474.06
2022-07-27T20:57:37.212Z,101482.19
2022-07-27T21:00:07.509Z,101477.66
2022-07-27T21:02:36.805Z,101478.97
2022-07-27T21:05:06.270Z,101486.84
2022-07-27T21:07:34.029Z,101487.66
2022-07-27T21:10:03.633Z,101480.06
2022-07-27T21:12:31.399Z,101476.75
2022-07-27T21:14:59.145Z,101483.56
2022-07-27T21:17:27.025Z,101483.00
2022-07-27T21:19:56.084Z,101495.28
2022-07-27T21:22:23.955Z,101489.09
2022-07-27T21:24:51.677Z,101485.44
2022-07-27T21:27:21.313Z,101491.44
2022-07-27T21:29:49.528Z,101487.94
2022-07-27T21:32:17.580Z,101499.16
2022-07-27T21:34:45.474Z,101494.75
2022-07-27T21:37:14.808Z,101492.53
2022-07-27T21:39:42.585Z,101495.50
2022-07-27T21:42:10.534Z,101494.09
2022-07-27T21:44:38.582Z,101494.97
2022-07-27T21:47:11.459Z,101493.84
2022-07-27T21:49:41.422Z,101499.03
2022-07-27T21:52:09.169Z,101490.03
2022-07-27T21:54:38.273Z,101495.22
2022-07-27T21:57:06.293Z,101487.09
2022-07-27T21:59:34.220Z,101489.53
2022-07-27T22:02:03.486Z,101488.44
2022-07-27T22:04:31.738Z,101487.66
2022-07-27T22:06:59.611Z,101489.81
2022-07-27T22:09:27.382Z,101493.13
2022-07-27T22:11:56.656Z,101489.06
2022-07-27T22:14:24.614Z,101499.16
2022-07-27T22:16:53.552Z,101490.72
2022-07-27T22:19:21.297Z,101489.69
2022-07-27T22:21:49.015Z,101495.09
2022-07-27T22:24:17.247Z,101483.88
2022-07-27T22:26:45.335Z,101486.34
2022-07-27T22:29:14.427Z,101494.53
2022-07-27T22:31:42.329Z,101497.59
2022-07-27T22:34:10.303Z,101498.91
2022-07-27T22:36:38.293Z,101505.78
2022-07-27T22:39:06.179Z,101506.09
2022-07-27T22:41:33.919Z,101500.91
2022-07-27T22:44:03.025Z,101507.97
2022-07-27T22:46:32.368Z,101509.13
2022-07-27T22:49:00.222Z,101501.44
2022-07-27T22:51:50.290Z,101509.66
2022-07-27T22:54:17.734Z,101505.84
2022-07-27T22:56:45.697Z,101513.47
2022-07-27T22:59:13.404Z,101509.09
2022-07-27T23:01:47.430Z,101508.03
2022-07-27T23:04:16.612Z,101507.78
2022-07-27T23:06:45.028Z,101509.38
2022-07-27T23:09:12.851Z,101506.13
2022-07-27T23:11:40.572Z,101505.53
2022-07-27T23:14:08.511Z,101500.16
2022-07-27T23:16:36.429Z,101508.88
2022-07-27T23:19:05.621Z,101508.31
2022-07-27T23:21:33.412Z,101516.72
2022-07-27T23:24:03.105Z,101511.84
2022-07-27T23:26:32.700Z,101506.41
2022-07-27T23:29:04.350Z,101504.78
2022-07-27T23:31:32.126Z,101506.94
2022-07-27T23:34:00.353Z,101504.22
2022-07-27T23:36:31.097Z,101506.94
2022-07-27T23:38:58.855Z,101504.78
2022-07-27T23:41:26.773Z,101504.78
2022-07-27T23:43:54.470Z,101507.50
2022-07-27T23:46:22.263Z,101500.69
2022-07-27T23:48:50.114Z,101500.69
2022-07-27T23:51:18.719Z,101501.50
2022-07-27T23:53:48.454Z,101509.38
2022-07-27T23:56:16.330Z,101496.63
2022-07-27T23:58:44.797Z,101502.59
